createdAt,value
2022-11-23T00:01:18.102Z,7.10
2022-11-23T00:03:46.400Z,7.20
2022-11-23T00:06:13.410Z,7.20
2022-11-23T00:08:40.447Z,7.10
2022-11-23T00:11:07.249Z,7.10
2022-11-23T00:13:39.300Z,7.10
2022-11-23T00:16:12.402Z,7.10
2022-11-23T00:18:39.062Z,7.00
2022-11-23T00:21:07.794Z,7.00
2022-11-23T00:23:34.842Z,7.00
2022-11-23T00:26:01.845Z,7.00
2022-11-23T00:28:28.504Z,7.10
2022-11-23T00:30:55.172Z,7.10
2022-11-23T00:33:21.920Z,7.20
2022-11-23T00:35:48.569Z,7.10
2022-11-23T00:38:15.711Z,7.10
2022-11-23T00:40:42.486Z,7.10
2022-11-23T00:43:09.133Z,7.10
2022-11-23T00:45:35.844Z,7.10
2022-11-23T00:48:02.558Z,7.10
2022-11-23T00:50:29.228Z,7.10
2022-11-23T00:52:55.862Z,7.10
2022-11-23T00:55:22.553Z,7.10
2022-11-23T00:57:49.198Z,7.10
2022-11-23T01:00:16.843Z,7.10
2022-11-23T01:02:43.476Z,7.10
2022-11-23T01:05:10.214Z,7.00
2022-11-23T01:07:36.873Z,7.00
2022-11-23T01:10:03.920Z,7.00
2022-11-23T01:12:30.540Z,7.10
2022-11-23T01:14:57.199Z,7.00
2022-11-23T01:17:23.908Z,7.00
2022-11-23T01:19:51.077Z,7.00
2022-11-23T01:22:17.784Z,7.00
2022-11-23T01:24:44.534Z,7.00
2022-11-23T01:27:11.206Z,7.10
2022-11-23T01:29:37.820Z,6.10
2022-11-23T01:32:04.570Z,7.00
2022-11-23T01:34:31.181Z,7.10
2022-11-23T01:36:57.881Z,7.10
2022-11-23T01:39:24.521Z,7.10
2022-11-23T01:41:51.174Z,7.20
2022-11-23T01:44:31.337Z,7.20
2022-11-23T01:47:01.394Z,7.20
2022-11-23T01:49:33.475Z,7.30
2022-11-23T01:52:04.151Z,7.30
2022-11-23T01:54:36.281Z,7.30
2022-11-23T01:57:19.392Z,7.30
2022-11-23T01:59:47.274Z,7.30
2022-11-23T02:02:15.452Z,7.30
2022-11-23T02:04:45.882Z,7.30
2022-11-23T02:07:14.653Z,7.30
2022-11-23T02:09:42.551Z,7.30
2022-11-23T02:12:13.346Z,7.40
2022-11-23T02:14:41.546Z,7.30
2022-11-23T02:17:08.772Z,7.40
2022-11-23T02:19:47.580Z,7.50
2022-11-23T02:22:52.259Z,7.50
2022-11-23T02:25:33.296Z,7.40
2022-11-23T02:28:01.614Z,7.40
2022-11-23T02:30:30.241Z,7.50
2022-11-23T02:32:56.974Z,7.50
2022-11-23T02:35:23.738Z,7.50
2022-11-23T02:37:52.602Z,7.50
2022-11-23T02:40:32.936Z,7.50
2022-11-23T02:43:00.461Z,7.40
2022-11-23T02:45:50.762Z,7.40
2022-11-23T02:48:18.387Z,7.50
2022-11-23T02:50:45.792Z,7.50
2022-11-23T02:53:13.275Z,7.40
2022-11-23T02:55:40.302Z,7.40
2022-11-23T02:58:07.691Z,7.50
2022-11-23T03:00:34.907Z,7.40
2022-11-23T03:03:02.768Z,7.40
2022-11-23T03:05:29.697Z,7.40
2022-11-23T03:07:56.400Z,7.40
2022-11-23T03:10:23.193Z,7.40
2022-11-23T03:12:49.909Z,7.40
2022-11-23T03:15:16.562Z,7.40
2022-11-23T03:17:43.218Z,7.40
2022-11-23T03:20:10.238Z,7.40
2022-11-23T03:22:37.242Z,7.40
2022-11-23T03:25:04.166Z,7.30
2022-11-23T03:27:33.516Z,7.30
2022-11-23T03:30:00.513Z,7.30
2022-11-23T03:32:27.186Z,7.30
2022-11-23T03:34:53.854Z,7.30
2022-11-23T03:37:20.556Z,7.30
2022-11-23T03:39:47.646Z,7.30
2022-11-23T03:42:14.550Z,7.30
2022-11-23T03:44:41.205Z,7.30
2022-11-23T03:47:07.922Z,7.30
2022-11-23T03:49:34.647Z,7.40
2022-11-23T03:52:01.345Z,7.40
2022-11-23T03:54:28.007Z,7.40
2022-11-23T03:56:54.663Z,7.40
2022-11-23T03:59:21.246Z,7.40
2022-11-23T04:01:47.846Z,7.30
2022-11-23T04:04:14.534Z,7.30
2022-11-23T04:06:41.123Z,7.30
2022-11-23T04:09:07.743Z,7.30
2022-11-23T04:11:34.357Z,7.30
2022-11-23T04:14:00.956Z,7.30
2022-11-23T04:16:27.778Z,7.30
2022-11-23T04:18:54.393Z,7.30
2022-11-23T04:21:21.085Z,7.40
2022-11-23T04:23:47.821Z,7.40
2022-11-23T04:26:14.483Z,7.50
2022-11-23T04:28:41.121Z,7.50
2022-11-23T04:31:07.741Z,7.50
2022-11-23T04:33:34.382Z,7.50
2022-11-23T04:36:01.046Z,7.50
2022-11-23T04:38:27.710Z,7.50
2022-11-23T04:40:54.387Z,7.60
2022-11-23T04:43:21.035Z,7.50
2022-11-23T04:45:47.666Z,7.50
2022-11-23T04:48:14.365Z,7.50
2022-11-23T04:50:43.028Z,7.60
2022-11-23T04:53:12.344Z,7.50
2022-11-23T04:55:39.011Z,7.50
2022-11-23T04:58:05.682Z,7.50
2022-11-23T05:00:32.323Z,7.50
2022-11-23T05:03:00.798Z,7.50
2022-11-23T05:05:27.712Z,7.50
2022-11-23T05:07:54.566Z,7.50
2022-11-23T05:10:21.238Z,7.60
2022-11-23T05:12:47.881Z,7.60
2022-11-23T05:15:14.899Z,7.60
2022-11-23T05:17:41.756Z,7.60
2022-11-23T05:20:09.137Z,7.60
2022-11-23T05:22:35.885Z,7.60
2022-11-23T05:25:02.701Z,7.50
2022-11-23T05:27:29.354Z,7.60
2022-11-23T05:29:56.068Z,7.60
2022-11-23T05:32:22.730Z,7.50
2022-11-23T05:34:49.994Z,7.60
2022-11-23T05:37:16.664Z,7.60
2022-11-23T05:39:43.274Z,7.50
2022-11-23T05:42:09.936Z,7.60
2022-11-23T05:44:36.599Z,7.50
2022-11-23T05:47:03.302Z,7.60
2022-11-23T05:49:30.341Z,7.60
2022-11-23T05:51:57.307Z,7.60
2022-11-23T05:54:23.945Z,7.60
2022-11-23T05:56:50.605Z,7.60
2022-11-23T05:59:17.254Z,7.70
2022-11-23T06:01:43.937Z,7.70
2022-11-23T06:04:10.656Z,7.70
2022-11-23T06:06:38.130Z,7.70
2022-11-23T06:09:04.774Z,7.70
2022-11-23T06:11:32.415Z,7.60
2022-11-23T06:13:59.140Z,7.60
2022-11-23T06:16:25.777Z,7.60
2022-11-23T06:18:52.749Z,7.60
2022-11-23T06:21:19.607Z,7.60
2022-11-23T06:23:49.627Z,7.60
2022-11-23T06:26:16.283Z,7.70
2022-11-23T06:28:42.953Z,7.70
2022-11-23T06:31:10.322Z,7.60
2022-11-23T06:33:37.012Z,7.70
2022-11-23T06:36:04.340Z,7.70
2022-11-23T06:38:31.192Z,7.60
2022-11-23T06:40:59.686Z,7.70
2022-11-23T06:43:26.795Z,7.70
2022-11-23T06:45:57.090Z,7.70
2022-11-23T06:48:24.156Z,7.70
2022-11-23T06:50:51.088Z,7.80
2022-11-23T06:53:17.819Z,7.80
2022-11-23T06:55:44.531Z,7.80
2022-11-23T06:58:11.277Z,7.90
2022-11-23T07:00:38.002Z,7.80
2022-11-23T07:03:04.646Z,7.90
2022-11-23T07:05:31.356Z,7.80
2022-11-23T07:07:57.995Z,7.80
2022-11-23T07:10:25.750Z,7.90
2022-11-23T07:12:52.506Z,7.90
2022-11-23T07:15:19.137Z,7.90
2022-11-23T07:17:45.769Z,7.90
2022-11-23T07:20:13.019Z,8.00
2022-11-23T07:22:39.837Z,8.10
2022-11-23T07:25:06.857Z,8.20
2022-11-23T07:27:33.901Z,8.20
2022-11-23T07:30:00.613Z,8.20
2022-11-23T07:32:27.304Z,8.20
2022-11-23T07:34:54.537Z,8.20
2022-11-23T07:37:21.191Z,8.10
2022-11-23T07:40:03.500Z,8.10
2022-11-23T07:42:33.930Z,8.10
2022-11-23T07:45:04.340Z,8.10
2022-11-23T07:47:31.301Z,8.10
2022-11-23T07:49:57.964Z,8.00
2022-11-23T07:52:24.789Z,8.10
2022-11-23T07:54:51.446Z,8.10
2022-11-23T07:57:18.083Z,8.20
2022-11-23T07:59:44.733Z,8.30
2022-11-23T08:02:14.259Z,8.30
2022-11-23T08:04:41.243Z,8.40
2022-11-23T08:07:07.945Z,8.40
2022-11-23T08:09:34.694Z,8.40
2022-11-23T08:12:01.351Z,8.40
2022-11-23T08:14:28.015Z,8.40
2022-11-23T08:16:54.657Z,8.50
2022-11-23T08:19:21.284Z,8.70
2022-11-23T08:21:47.931Z,8.80
2022-11-23T08:24:14.575Z,8.90
2022-11-23T08:26:41.215Z,8.90
2022-11-23T08:29:07.878Z,8.90
2022-11-23T08:31:34.564Z,9.00
2022-11-23T08:34:03.603Z,9.20
2022-11-23T08:36:30.561Z,9.30
2022-11-23T08:38:57.253Z,9.50
2022-11-23T08:41:23.938Z,10.00
2022-11-23T08:43:51.340Z,11.10
2022-11-23T08:46:18.123Z,12.30
2022-11-23T08:48:45.058Z,12.70
2022-11-23T08:51:11.955Z,14.60
2022-11-23T08:53:38.929Z,15.70
2022-11-23T08:56:07.881Z,16.40
2022-11-23T08:58:36.698Z,16.50
2022-11-23T09:01:11.114Z,17.20
2022-11-23T09:03:38.312Z,17.90
2022-11-23T09:06:05.095Z,18.10
2022-11-23T09:08:31.833Z,18.90
2022-11-23T09:11:07.382Z,18.50
2022-11-23T09:13:37.866Z,19.10
2022-11-23T09:16:06.029Z,19.10
2022-11-23T09:18:36.674Z,19.10
2022-11-23T09:21:05.018Z,18.90
2022-11-23T09:23:33.625Z,19.40
2022-11-23T09:26:01.498Z,19.90
2022-11-23T09:28:28.467Z,20.70
2022-11-23T09:30:56.324Z,21.20
2022-11-23T09:33:24.226Z,20.90
2022-11-23T09:36:01.518Z,20.70
2022-11-23T09:38:44.795Z,20.50
2022-11-23T09:41:35.223Z,20.00
2022-11-23T09:44:32.725Z,20.00
2022-11-23T09:47:20.593Z,20.70
2022-11-23T09:50:11.273Z,21.70
2022-11-23T09:52:45.138Z,22.20
2022-11-23T09:55:20.723Z,22.80
2022-11-23T09:57:48.925Z,22.70
2022-11-23T10:00:20.798Z,22.50
2022-11-23T10:02:47.886Z,22.10
2022-11-23T10:05:21.350Z,22.40
2022-11-23T10:07:54.102Z,22.90
2022-11-23T10:10:29.890Z,22.60
2022-11-23T10:13:24.180Z,22.50
2022-11-23T10:16:14.639Z,22.20
2022-11-23T10:19:02.238Z,22.00
2022-11-23T10:21:52.034Z,22.20
2022-11-23T10:24:21.614Z,22.40
2022-11-23T10:26:49.947Z,22.70
2022-11-23T10:29:28.351Z,23.10
2022-11-23T10:31:57.197Z,23.70
2022-11-23T10:34:59.307Z,24.10
2022-11-23T10:37:26.210Z,24.30
2022-11-23T10:39:52.939Z,24.70
2022-11-23T10:42:43.377Z,24.30
2022-11-23T10:45:23.305Z,24.00
2022-11-23T10:47:58.773Z,24.50
2022-11-23T10:50:30.066Z,25.00
2022-11-23T10:53:00.815Z,25.20
2022-11-23T10:55:30.871Z,24.20
2022-11-23T10:57:58.189Z,23.90
2022-11-23T11:00:30.875Z,23.80
2022-11-23T11:02:58.996Z,23.80
2022-11-23T11:08:57.066Z,22.80
2022-11-23T11:11:30.441Z,23.20
2022-11-23T11:14:13.288Z,23.70
2022-11-23T11:16:48.572Z,24.10
2022-11-23T11:19:35.944Z,24.20
2022-11-23T11:22:24.400Z,24.70
2022-11-23T11:24:51.309Z,24.90
2022-11-23T11:27:22.039Z,25.00
2022-11-23T11:29:51.525Z,24.30
2022-11-23T11:32:51.982Z,23.90
2022-11-23T11:35:34.342Z,22.30
2022-11-23T11:38:08.477Z,22.30
2022-11-23T11:40:45.944Z,22.10
2022-11-23T11:43:25.862Z,21.90
2022-11-23T11:46:29.446Z,21.40
2022-11-23T11:49:15.108Z,21.40
2022-11-23T11:51:46.633Z,21.50
2022-11-23T11:54:22.486Z,22.10
2022-11-23T11:56:55.561Z,22.30
2022-11-23T11:59:44.248Z,22.30
2022-11-23T12:02:23.048Z,23.10
2022-11-23T12:05:16.264Z,22.80
2022-11-23T12:07:49.552Z,21.70
2022-11-23T12:10:23.154Z,21.40
2022-11-23T12:12:49.946Z,22.40
2022-11-23T12:15:47.749Z,22.90
2022-11-23T12:18:11.653Z,23.70
2022-11-23T12:21:02.907Z,23.20
2022-11-23T12:23:41.561Z,22.90
2022-11-23T12:26:14.471Z,23.20
2022-11-23T12:29:07.249Z,22.50
2022-11-23T12:31:57.834Z,22.60
2022-11-23T12:34:51.668Z,22.40
2022-11-23T12:37:49.276Z,22.50
2022-11-23T12:40:40.923Z,22.00
2022-11-23T12:43:32.186Z,22.30
2022-11-23T12:46:21.873Z,22.40
2022-11-23T12:49:26.773Z,22.20
2022-11-23T12:52:31.087Z,22.00
2022-11-23T12:55:19.373Z,21.30
2022-11-23T12:58:03.891Z,21.60
2022-11-23T13:00:37.505Z,21.50
2022-11-23T13:03:21.001Z,21.40
2022-11-23T13:06:00.311Z,22.00
2022-11-23T13:09:09.626Z,21.00
2022-11-23T13:12:01.053Z,20.90
2022-11-23T13:14:46.249Z,21.00
2022-11-23T13:17:18.673Z,20.80
2022-11-23T13:19:48.133Z,21.40
2022-11-23T13:22:19.171Z,21.80
2022-11-23T13:25:21.325Z,21.20
2022-11-23T13:27:50.993Z,21.30
2022-11-23T13:30:45.959Z,21.50
2022-11-23T13:33:25.237Z,21.70
2022-11-23T13:35:57.218Z,21.10
2022-11-23T13:38:28.756Z,20.90
2022-11-23T13:40:56.074Z,20.20
2022-11-23T13:43:29.716Z,19.20
2022-11-23T13:46:41.295Z,17.70
2022-11-23T13:49:46.506Z,16.30
2022-11-23T13:52:22.417Z,15.40
2022-11-23T13:55:11.197Z,15.10
2022-11-23T13:57:42.742Z,15.00
2022-11-23T14:00:47.101Z,14.90
2022-11-23T14:03:52.390Z,14.10
2022-11-23T14:06:36.873Z,13.30
2022-11-23T14:09:03.485Z,12.80
2022-11-23T14:11:33.322Z,12.50
2022-11-23T14:14:04.971Z,12.30
2022-11-23T14:17:09.458Z,12.20
2022-11-23T14:20:01.530Z,12.00
2022-11-23T14:22:43.473Z,11.80
2022-11-23T14:25:28.557Z,11.50
2022-11-23T14:28:23.080Z,11.40
2022-11-23T14:31:05.248Z,11.40
2022-11-23T14:33:51.765Z,11.30
2022-11-23T14:36:18.416Z,11.20
2022-11-23T14:38:57.014Z,11.10
2022-11-23T14:41:30.798Z,11.10
2022-11-23T14:44:00.104Z,11.10
2022-11-23T14:46:26.849Z,11.10
2022-11-23T14:49:06.951Z,11.00
2022-11-23T14:51:34.925Z,11.00
2022-11-23T14:54:08.049Z,10.90
2022-11-23T14:56:46.206Z,10.90
2022-11-23T14:59:20.818Z,10.80
2022-11-23T15:01:53.938Z,10.70
2022-11-23T15:04:23.510Z,10.70
2022-11-23T15:06:54.423Z,10.60
2022-11-23T15:09:41.882Z,10.60
2022-11-23T15:12:25.373Z,10.50
2022-11-23T15:14:54.032Z,10.50
2022-11-23T15:17:22.456Z,10.50
2022-11-23T15:19:57.089Z,10.50
2022-11-23T15:22:24.673Z,10.50
2022-11-23T15:24:51.843Z,10.50
2022-11-23T15:27:28.308Z,10.40
2022-11-23T15:29:57.691Z,10.30
2022-11-23T15:32:31.413Z,10.20
2022-11-23T15:35:04.285Z,10.10
2022-11-23T15:37:32.216Z,10.00
2022-11-23T15:39:59.416Z,9.80
2022-11-23T15:42:27.478Z,9.80
2022-11-23T15:44:55.424Z,9.70
2022-11-23T15:47:28.139Z,9.70
2022-11-23T15:50:01.247Z,9.70
2022-11-23T15:52:32.362Z,9.60
2022-11-23T15:55:08.837Z,9.60
2022-11-23T15:57:36.837Z,9.50
2022-11-23T16:00:05.356Z,9.50
2022-11-23T16:02:32.163Z,9.40
2022-11-23T16:05:05.251Z,9.40
2022-11-23T16:07:32.198Z,9.40
2022-11-23T16:10:18.197Z,9.40
2022-11-23T16:12:50.376Z,9.40
2022-11-23T16:15:38.291Z,9.50
2022-11-23T16:18:20.580Z,9.50
2022-11-23T16:20:55.059Z,9.50
2022-11-23T16:23:28.905Z,9.50
2022-11-23T16:26:01.049Z,9.60
2022-11-23T16:28:32.431Z,9.60
2022-11-23T16:30:59.863Z,9.70
2022-11-23T16:33:26.967Z,9.70
2022-11-23T16:35:53.957Z,9.80
2022-11-23T16:38:21.410Z,9.80
2022-11-23T16:40:48.570Z,9.90
2022-11-23T16:43:16.856Z,9.90
2022-11-23T16:45:51.358Z,9.90
2022-11-23T16:48:40.029Z,9.90
2022-11-23T16:51:07.446Z,10.10
2022-11-23T16:53:53.507Z,10.10
2022-11-23T16:56:26.134Z,10.20
2022-11-23T16:58:54.449Z,10.20
2022-11-23T17:01:26.742Z,10.20
2022-11-23T17:03:53.874Z,10.20
2022-11-23T17:06:23.620Z,10.10
2022-11-23T17:08:58.495Z,10.00
2022-11-23T17:11:27.826Z,10.00
2022-11-23T17:13:55.845Z,10.00
2022-11-23T17:16:25.157Z,10.00
2022-11-23T17:18:51.939Z,10.00
2022-11-23T17:21:19.583Z,10.00
2022-11-23T17:23:46.806Z,10.00
2022-11-23T17:26:32.594Z,9.90
2022-11-23T17:29:02.319Z,9.70
2022-11-23T17:31:29.607Z,9.60
2022-11-23T17:33:56.410Z,9.50
2022-11-23T17:36:25.142Z,9.40
2022-11-23T17:38:52.007Z,9.30
2022-11-23T17:41:18.636Z,9.30
2022-11-23T17:43:45.332Z,9.20
2022-11-23T17:46:26.448Z,9.20
2022-11-23T17:48:58.172Z,9.20
2022-11-23T17:51:25.460Z,9.20
2022-11-23T17:53:52.173Z,9.20
2022-11-23T17:56:20.821Z,9.20
2022-11-23T17:58:47.877Z,9.20
2022-11-23T18:01:16.736Z,9.20
2022-11-23T18:03:44.782Z,9.20
2022-11-23T18:06:20.847Z,9.10
2022-11-23T18:08:48.544Z,9.10
2022-11-23T18:11:15.922Z,9.10
2022-11-23T18:13:43.531Z,9.10
2022-11-23T18:16:10.767Z,9.10
2022-11-23T18:18:37.747Z,9.10
2022-11-23T18:21:05.010Z,9.20
2022-11-23T18:23:31.887Z,9.20
2022-11-23T18:25:59.393Z,9.20
2022-11-23T18:28:26.205Z,9.20
2022-11-23T18:30:53.137Z,9.20
2022-11-23T18:33:19.834Z,9.30
2022-11-23T18:35:46.482Z,9.20
2022-11-23T18:38:13.124Z,9.30
2022-11-23T18:40:39.761Z,9.30
2022-11-23T18:43:06.516Z,9.30
2022-11-23T18:45:33.560Z,9.30
2022-11-23T18:48:00.361Z,9.30
2022-11-23T18:50:27.276Z,9.30
2022-11-23T18:52:54.182Z,9.30
2022-11-23T18:55:20.866Z,9.30
2022-11-23T18:57:47.513Z,9.30
2022-11-23T19:00:15.835Z,9.30
2022-11-23T19:02:42.593Z,9.30
2022-11-23T19:05:09.384Z,9.30
2022-11-23T19:07:36.044Z,9.30
2022-11-23T19:10:03.046Z,9.20
2022-11-23T19:12:30.818Z,9.10
2022-11-23T19:14:57.465Z,8.90
2022-11-23T19:17:24.260Z,8.90
2022-11-23T19:19:50.921Z,8.90
2022-11-23T19:22:17.581Z,8.90
2022-11-23T19:24:44.197Z,8.90
2022-11-23T19:27:10.875Z,8.90
2022-11-23T19:29:37.902Z,8.80
2022-11-23T19:32:05.215Z,8.90
2022-11-23T19:34:32.076Z,8.90
2022-11-23T19:36:58.798Z,9.00
2022-11-23T19:39:25.528Z,9.00
2022-11-23T19:41:52.162Z,9.10
2022-11-23T19:44:18.814Z,9.10
2022-11-23T19:46:45.518Z,9.10
2022-11-23T19:49:12.425Z,9.10
2022-11-23T19:51:39.110Z,9.20
2022-11-23T19:54:06.889Z,9.20
2022-11-23T19:56:33.544Z,9.20
2022-11-23T19:59:01.119Z,9.20
2022-11-23T20:01:31.859Z,9.20
2022-11-23T20:04:08.002Z,9.20
2022-11-23T20:06:37.186Z,9.20
2022-11-23T20:09:09.426Z,9.20
2022-11-23T20:11:38.387Z,9.10
2022-11-23T20:14:05.140Z,9.10
2022-11-23T20:16:32.811Z,9.10
2022-11-23T20:19:02.207Z,9.10
2022-11-23T20:21:30.212Z,9.10
2022-11-23T20:24:05.993Z,9.00
2022-11-23T20:26:34.221Z,8.90
2022-11-23T20:29:01.127Z,8.90
2022-11-23T20:31:29.762Z,8.80
2022-11-23T20:33:57.416Z,8.70
2022-11-23T20:36:26.072Z,8.60
2022-11-23T20:38:53.672Z,8.60
2022-11-23T20:41:28.884Z,8.60
2022-11-23T20:43:57.822Z,8.50
2022-11-23T20:46:46.097Z,8.50
2022-11-23T20:49:13.043Z,8.50
2022-11-23T20:51:39.682Z,8.40
2022-11-23T20:54:06.321Z,8.30
2022-11-23T20:56:33.041Z,8.10
2022-11-23T20:59:00.295Z,8.00
2022-11-23T21:01:27.912Z,7.90
2022-11-23T21:03:58.938Z,7.80
2022-11-23T21:06:26.606Z,7.60
2022-11-23T21:08:53.373Z,7.50
2022-11-23T21:11:47.628Z,7.40
2022-11-23T21:14:18.603Z,7.40
2022-11-23T21:16:55.150Z,7.40
2022-11-23T21:19:23.930Z,7.30
2022-11-23T21:21:51.114Z,7.30
2022-11-23T21:24:18.436Z,7.20
2022-11-23T21:26:45.542Z,7.20
2022-11-23T21:29:12.709Z,7.20
2022-11-23T21:31:41.167Z,7.10
2022-11-23T21:34:10.607Z,7.10
2022-11-23T21:36:39.153Z,7.10
2022-11-23T21:39:08.827Z,7.10
2022-11-23T21:41:36.128Z,7.10
2022-11-23T21:44:03.481Z,7.20
2022-11-23T21:46:30.275Z,7.30
2022-11-23T21:48:58.639Z,7.30
2022-11-23T21:51:28.451Z,7.30
2022-11-23T21:53:56.070Z,7.20
2022-11-23T21:56:23.008Z,7.10
2022-11-23T21:58:49.912Z,7.00
2022-11-23T22:01:19.080Z,7.00
2022-11-23T22:03:48.680Z,7.00
2022-11-23T22:06:20.178Z,7.00
2022-11-23T22:08:50.070Z,7.00
2022-11-23T22:11:19.660Z,7.10
2022-11-23T22:13:46.602Z,7.20
2022-11-23T22:16:15.912Z,7.10
2022-11-23T22:18:42.896Z,7.20
2022-11-23T22:21:10.244Z,7.30
2022-11-23T22:23:37.502Z,7.30
2022-11-23T22:26:06.133Z,7.40
2022-11-23T22:28:34.157Z,7.50
2022-11-23T22:31:02.737Z,7.50
2022-11-23T22:33:30.207Z,7.50
2022-11-23T22:36:04.680Z,7.50
2022-11-23T22:38:32.283Z,7.50
2022-11-23T22:41:02.976Z,7.50
2022-11-23T22:43:30.224Z,7.50
2022-11-23T22:46:05.771Z,7.50
2022-11-23T22:48:35.421Z,7.40
2022-11-23T22:51:02.344Z,7.50
2022-11-23T22:53:29.681Z,7.40
2022-11-23T22:56:01.810Z,7.30
2022-11-23T22:58:30.032Z,7.30
2022-11-23T23:00:57.520Z,7.40
2022-11-23T23:03:24.497Z,7.40
2022-11-23T23:05:55.653Z,7.30
2022-11-23T23:08:22.652Z,7.40
2022-11-23T23:10:49.927Z,7.30
2022-11-23T23:13:17.052Z,7.20
2022-11-23T23:15:44.109Z,7.20
2022-11-23T23:18:11.259Z,7.20
2022-11-23T23:20:38.047Z,7.20
2022-11-23T23:23:05.280Z,7.20
2022-11-23T23:25:32.300Z,7.20
2022-11-23T23:27:58.931Z,7.30
2022-11-23T23:30:25.587Z,7.20
2022-11-23T23:32:54.357Z,7.20
2022-11-23T23:35:21.055Z,7.20
2022-11-23T23:37:51.373Z,7.10
2022-11-23T23:40:18.168Z,7.10
2022-11-23T23:42:44.831Z,7.10
2022-11-23T23:45:11.468Z,7.10
2022-11-23T23:47:38.727Z,7.20
2022-11-23T23:50:05.892Z,7.20
2022-11-23T23:52:32.555Z,7.20
2022-11-23T23:54:59.198Z,7.20
2022-11-23T23:57:25.824Z,7.20
2022-11-23T23:59:52.448Z,7.20
